sensor_id;sensor_type;location;lat;lon;timestamp;temperature;humidity
22321;DHT22;11328;53.928;18.522;2023-06-14T00:00:49;16.20;96.30
22321;DHT22;11328;53.928;18.522;2023-06-14T00:03:16;16.10;96.40
22321;DHT22;11328;53.928;18.522;2023-06-14T00:05:44;16.00;96.40
22321;DHT22;11328;53.928;18.522;2023-06-14T00:08:13;16.00;96.50
22321;DHT22;11328;53.928;18.522;2023-06-14T00:10:41;16.00;96.60
22321;DHT22;11328;53.928;18.522;2023-06-14T00:13:09;15.90;96.70
22321;DHT22;11328;53.928;18.522;2023-06-14T00:15:37;16.00;96.60
22321;DHT22;11328;53.928;18.522;2023-06-14T00:18:04;16.00;96.70
22321;DHT22;11328;53.928;18.522;2023-06-14T00:20:32;16.00;96.80
22321;DHT22;11328;53.928;18.522;2023-06-14T00:23:00;16.00;96.80
22321;DHT22;11328;53.928;18.522;2023-06-14T00:25:28;15.90;97.00
22321;DHT22;11328;53.928;18.522;2023-06-14T00:27:56;16.00;96.90
22321;DHT22;11328;53.928;18.522;2023-06-14T00:30:25;16.00;97.00
22321;DHT22;11328;53.928;18.522;2023-06-14T00:32:57;16.00;97.00
22321;DHT22;11328;53.928;18.522;2023-06-14T00:35:24;16.00;97.00
22321;DHT22;11328;53.928;18.522;2023-06-14T00:37:52;16.10;97.10
22321;DHT22;11328;53.928;18.522;2023-06-14T00:40:21;16.00;97.10
22321;DHT22;11328;53.928;18.522;2023-06-14T00:42:48;16.10;97.20
22321;DHT22;11328;53.928;18.522;2023-06-14T00:45:16;16.10;97.10
22321;DHT22;11328;53.928;18.522;2023-06-14T00:47:43;16.10;97.00
22321;DHT22;11328;53.928;18.522;2023-06-14T00:50:13;16.20;97.00
22321;DHT22;11328;53.928;18.522;2023-06-14T00:52:40;16.20;97.00
22321;DHT22;11328;53.928;18.522;2023-06-14T00:55:07;16.20;97.00
22321;DHT22;11328;53.928;18.522;2023-06-14T00:57:35;16.20;97.10
22321;DHT22;11328;53.928;18.522;2023-06-14T01:00:04;16.20;97.00
22321;DHT22;11328;53.928;18.522;2023-06-14T01:02:37;16.20;97.00
22321;DHT22;11328;53.928;18.522;2023-06-14T01:05:08;16.30;96.80
22321;DHT22;11328;53.928;18.522;2023-06-14T01:10:35;16.50;96.80
22321;DHT22;11328;53.928;18.522;2023-06-14T01:16:12;16.50;96.90
22321;DHT22;11328;53.928;18.522;2023-06-14T01:18:40;16.60;96.90
22321;DHT22;11328;53.928;18.522;2023-06-14T01:21:23;16.50;96.90
22321;DHT22;11328;53.928;18.522;2023-06-14T01:23:52;16.50;96.90
22321;DHT22;11328;53.928;18.522;2023-06-14T01:26:23;16.50;97.10
22321;DHT22;11328;53.928;18.522;2023-06-14T01:28:50;16.50;97.00
22321;DHT22;11328;53.928;18.522;2023-06-14T01:31:20;16.50;97.10
22321;DHT22;11328;53.928;18.522;2023-06-14T01:33:50;16.50;97.20
22321;DHT22;11328;53.928;18.522;2023-06-14T01:36:22;16.40;97.20
22321;DHT22;11328;53.928;18.522;2023-06-14T01:38:50;16.50;97.20
22321;DHT22;11328;53.928;18.522;2023-06-14T01:41:19;16.50;97.20
22321;DHT22;11328;53.928;18.522;2023-06-14T01:43:49;16.50;97.30
22321;DHT22;11328;53.928;18.522;2023-06-14T01:46:17;16.40;97.50
22321;DHT22;11328;53.928;18.522;2023-06-14T01:48:46;16.50;97.40
22321;DHT22;11328;53.928;18.522;2023-06-14T01:51:13;16.50;97.30
22321;DHT22;11328;53.928;18.522;2023-06-14T01:53:39;16.50;97.10
22321;DHT22;11328;53.928;18.522;2023-06-14T01:56:07;16.60;97.10
22321;DHT22;11328;53.928;18.522;2023-06-14T01:58:34;16.60;97.10
22321;DHT22;11328;53.928;18.522;2023-06-14T02:01:02;16.60;97.10
22321;DHT22;11328;53.928;18.522;2023-06-14T02:03:29;16.70;97.10
22321;DHT22;11328;53.928;18.522;2023-06-14T02:05:56;16.70;97.00
22321;DHT22;11328;53.928;18.522;2023-06-14T02:08:23;16.70;96.90
22321;DHT22;11328;53.928;18.522;2023-06-14T02:10:52;16.70;96.90
22321;DHT22;11328;53.928;18.522;2023-06-14T02:13:19;16.70;96.90
22321;DHT22;11328;53.928;18.522;2023-06-14T02:15:46;16.70;96.80
22321;DHT22;11328;53.928;18.522;2023-06-14T02:18:13;16.60;96.90
22321;DHT22;11328;53.928;18.522;2023-06-14T02:20:40;16.50;96.80
22321;DHT22;11328;53.928;18.522;2023-06-14T02:23:07;16.50;97.00
22321;DHT22;11328;53.928;18.522;2023-06-14T02:25:34;16.30;97.20
22321;DHT22;11328;53.928;18.522;2023-06-14T02:28:01;16.20;98.00
22321;DHT22;11328;53.928;18.522;2023-06-14T02:30:29;16.10;98.20
22321;DHT22;11328;53.928;18.522;2023-06-14T02:32:56;16.00;98.70
22321;DHT22;11328;53.928;18.522;2023-06-14T02:35:23;15.90;99.30
22321;DHT22;11328;53.928;18.522;2023-06-14T02:37:53;15.90;99.90
22321;DHT22;11328;53.928;18.522;2023-06-14T02:40:20;15.90;99.90
22321;DHT22;11328;53.928;18.522;2023-06-14T02:42:47;16.00;99.90
22321;DHT22;11328;53.928;18.522;2023-06-14T02:45:14;16.00;99.90
22321;DHT22;11328;53.928;18.522;2023-06-14T02:47:41;16.10;99.90
22321;DHT22;11328;53.928;18.522;2023-06-14T02:50:08;16.10;99.90
22321;DHT22;11328;53.928;18.522;2023-06-14T02:52:35;16.20;99.90
22321;DHT22;11328;53.928;18.522;2023-06-14T02:55:02;16.20;99.90
22321;DHT22;11328;53.928;18.522;2023-06-14T02:57:30;16.30;99.90
22321;DHT22;11328;53.928;18.522;2023-06-14T02:59:57;16.30;99.90
22321;DHT22;11328;53.928;18.522;2023-06-14T03:02:23;16.30;99.90
22321;DHT22;11328;53.928;18.522;2023-06-14T03:04:50;16.30;99.90
22321;DHT22;11328;53.928;18.522;2023-06-14T03:07:17;16.30;99.90
22321;DHT22;11328;53.928;18.522;2023-06-14T03:09:48;16.30;99.90
22321;DHT22;11328;53.928;18.522;2023-06-14T03:12:15;16.30;99.90
22321;DHT22;11328;53.928;18.522;2023-06-14T03:14:42;16.30;99.90
22321;DHT22;11328;53.928;18.522;2023-06-14T03:17:09;16.30;99.90
22321;DHT22;11328;53.928;18.522;2023-06-14T03:19:37;16.30;99.90
22321;DHT22;11328;53.928;18.522;2023-06-14T03:22:04;16.20;99.90
22321;DHT22;11328;53.928;18.522;2023-06-14T03:24:34;16.20;99.90
22321;DHT22;11328;53.928;18.522;2023-06-14T03:27:03;16.20;99.90
22321;DHT22;11328;53.928;18.522;2023-06-14T03:29:30;16.30;99.90
22321;DHT22;11328;53.928;18.522;2023-06-14T03:32:02;16.20;99.90
22321;DHT22;11328;53.928;18.522;2023-06-14T03:34:30;16.20;99.90
22321;DHT22;11328;53.928;18.522;2023-06-14T03:36:57;16.20;99.90
22321;DHT22;11328;53.928;18.522;2023-06-14T03:39:24;16.20;99.90
22321;DHT22;11328;53.928;18.522;2023-06-14T03:41:51;16.20;99.90
22321;DHT22;11328;53.928;18.522;2023-06-14T03:44:18;16.20;99.90
22321;DHT22;11328;53.928;18.522;2023-06-14T03:46:46;16.20;99.90
22321;DHT22;11328;53.928;18.522;2023-06-14T03:49:13;16.30;99.90
22321;DHT22;11328;53.928;18.522;2023-06-14T03:51:40;16.30;99.90
22321;DHT22;11328;53.928;18.522;2023-06-14T03:54:08;16.30;99.90
22321;DHT22;11328;53.928;18.522;2023-06-14T03:56:38;16.30;99.90
22321;DHT22;11328;53.928;18.522;2023-06-14T03:59:05;16.30;99.90
22321;DHT22;11328;53.928;18.522;2023-06-14T04:01:31;16.30;99.90
22321;DHT22;11328;53.928;18.522;2023-06-14T04:04:00;16.40;99.90
22321;DHT22;11328;53.928;18.522;2023-06-14T04:06:27;16.50;99.90
22321;DHT22;11328;53.928;18.522;2023-06-14T04:09:00;16.50;99.90
22321;DHT22;11328;53.928;18.522;2023-06-14T04:11:30;16.50;99.90
22321;DHT22;11328;53.928;18.522;2023-06-14T04:13:58;16.60;99.90
22321;DHT22;11328;53.928;18.522;2023-06-14T04:16:26;16.50;99.90
22321;DHT22;11328;53.928;18.522;2023-06-14T04:18:55;16.50;99.90
22321;DHT22;11328;53.928;18.522;2023-06-14T04:21:22;16.60;99.90
22321;DHT22;11328;53.928;18.522;2023-06-14T04:23:49;16.60;99.90
22321;DHT22;11328;53.928;18.522;2023-06-14T04:26:19;16.60;99.90
22321;DHT22;11328;53.928;18.522;2023-06-14T04:28:49;16.60;99.90
22321;DHT22;11328;53.928;18.522;2023-06-14T04:31:17;16.70;99.90
22321;DHT22;11328;53.928;18.522;2023-06-14T04:33:44;16.80;99.90
22321;DHT22;11328;53.928;18.522;2023-06-14T04:36:13;16.80;99.90
22321;DHT22;11328;53.928;18.522;2023-06-14T04:38:40;16.80;99.90
22321;DHT22;11328;53.928;18.522;2023-06-14T04:41:07;16.90;99.90
22321;DHT22;11328;53.928;18.522;2023-06-14T04:43:38;17.00;99.90
22321;DHT22;11328;53.928;18.522;2023-06-14T04:46:05;17.00;99.90
22321;DHT22;11328;53.928;18.522;2023-06-14T04:48:39;17.10;99.90
22321;DHT22;11328;53.928;18.522;2023-06-14T04:51:08;17.00;99.90
22321;DHT22;11328;53.928;18.522;2023-06-14T04:53:36;17.10;99.90
22321;DHT22;11328;53.928;18.522;2023-06-14T04:56:03;17.20;99.90
22321;DHT22;11328;53.928;18.522;2023-06-14T04:58:31;17.30;99.90
22321;DHT22;11328;53.928;18.522;2023-06-14T05:00:59;17.40;99.90
22321;DHT22;11328;53.928;18.522;2023-06-14T05:03:26;17.60;99.90
22321;DHT22;11328;53.928;18.522;2023-06-14T05:05:54;17.70;99.90
22321;DHT22;11328;53.928;18.522;2023-06-14T05:08:21;17.90;99.90
22321;DHT22;11328;53.928;18.522;2023-06-14T05:10:52;18.10;99.90
22321;DHT22;11328;53.928;18.522;2023-06-14T05:13:19;18.30;99.90
22321;DHT22;11328;53.928;18.522;2023-06-14T05:15:48;18.60;99.90
22321;DHT22;11328;53.928;18.522;2023-06-14T05:18:15;18.90;99.90
22321;DHT22;11328;53.928;18.522;2023-06-14T05:20:43;19.00;99.90
22321;DHT22;11328;53.928;18.522;2023-06-14T05:23:10;19.20;99.90
22321;DHT22;11328;53.928;18.522;2023-06-14T05:25:43;19.50;99.90
22321;DHT22;11328;53.928;18.522;2023-06-14T05:28:11;19.60;99.90
22321;DHT22;11328;53.928;18.522;2023-06-14T05:30:39;19.70;99.90
22321;DHT22;11328;53.928;18.522;2023-06-14T05:33:06;19.90;99.90
22321;DHT22;11328;53.928;18.522;2023-06-14T05:35:33;20.00;99.90
22321;DHT22;11328;53.928;18.522;2023-06-14T05:38:01;20.30;99.90
22321;DHT22;11328;53.928;18.522;2023-06-14T05:40:28;20.30;99.90
22321;DHT22;11328;53.928;18.522;2023-06-14T05:42:55;20.40;99.90
22321;DHT22;11328;53.928;18.522;2023-06-14T05:45:22;20.40;99.90
22321;DHT22;11328;53.928;18.522;2023-06-14T05:47:49;20.40;99.90
22321;DHT22;11328;53.928;18.522;2023-06-14T05:50:17;20.50;99.90
22321;DHT22;11328;53.928;18.522;2023-06-14T05:52:44;20.60;99.90
22321;DHT22;11328;53.928;18.522;2023-06-14T05:55:11;20.80;99.90
22321;DHT22;11328;53.928;18.522;2023-06-14T05:57:40;21.10;99.90
22321;DHT22;11328;53.928;18.522;2023-06-14T06:00:08;21.40;99.90
22321;DHT22;11328;53.928;18.522;2023-06-14T06:02:37;21.70;99.90
22321;DHT22;11328;53.928;18.522;2023-06-14T06:05:04;21.80;99.40
22321;DHT22;11328;53.928;18.522;2023-06-14T06:07:32;21.80;98.90
22321;DHT22;11328;53.928;18.522;2023-06-14T06:10:03;21.90;98.70
22321;DHT22;11328;53.928;18.522;2023-06-14T06:12:31;22.00;98.50
22321;DHT22;11328;53.928;18.522;2023-06-14T06:14:59;22.10;98.10
22321;DHT22;11328;53.928;18.522;2023-06-14T06:17:26;22.00;98.00
22321;DHT22;11328;53.928;18.522;2023-06-14T06:20:08;22.10;98.40
22321;DHT22;11328;53.928;18.522;2023-06-14T06:22:36;22.20;98.30
22321;DHT22;11328;53.928;18.522;2023-06-14T06:25:03;22.20;98.40
22321;DHT22;11328;53.928;18.522;2023-06-14T06:27:31;22.10;98.30
22321;DHT22;11328;53.928;18.522;2023-06-14T06:29:58;22.30;98.20
22321;DHT22;11328;53.928;18.522;2023-06-14T06:32:25;22.50;98.00
22321;DHT22;11328;53.928;18.522;2023-06-14T06:34:52;22.90;97.20
22321;DHT22;11328;53.928;18.522;2023-06-14T06:37:19;23.10;97.20
22321;DHT22;11328;53.928;18.522;2023-06-14T06:39:46;23.50;96.40
22321;DHT22;11328;53.928;18.522;2023-06-14T06:42:14;23.60;95.30
22321;DHT22;11328;53.928;18.522;2023-06-14T06:44:41;24.00;95.30
22321;DHT22;11328;53.928;18.522;2023-06-14T06:47:08;24.10;94.00
22321;DHT22;11328;53.928;18.522;2023-06-14T06:49:37;24.00;94.00
22321;DHT22;11328;53.928;18.522;2023-06-14T06:52:06;24.10;93.70
22321;DHT22;11328;53.928;18.522;2023-06-14T06:54:34;24.00;93.70
22321;DHT22;11328;53.928;18.522;2023-06-14T06:57:01;24.20;93.60
22321;DHT22;11328;53.928;18.522;2023-06-14T06:59:28;24.30;93.10
22321;DHT22;11328;53.928;18.522;2023-06-14T07:01:55;24.60;92.60
22321;DHT22;11328;53.928;18.522;2023-06-14T07:04:22;24.90;91.70
22321;DHT22;11328;53.928;18.522;2023-06-14T07:06:49;25.20;91.20
22321;DHT22;11328;53.928;18.522;2023-06-14T07:09:16;25.10;89.00
22321;DHT22;11328;53.928;18.522;2023-06-14T07:11:44;25.00;89.20
22321;DHT22;11328;53.928;18.522;2023-06-14T07:14:11;24.80;90.30
22321;DHT22;11328;53.928;18.522;2023-06-14T07:16:39;24.90;90.50
22321;DHT22;11328;53.928;18.522;2023-06-14T07:19:07;24.80;89.90
22321;DHT22;11328;53.928;18.522;2023-06-14T07:21:35;24.80;90.40
22321;DHT22;11328;53.928;18.522;2023-06-14T07:24:06;24.80;90.20
22321;DHT22;11328;53.928;18.522;2023-06-14T07:26:34;24.70;90.60
22321;DHT22;11328;53.928;18.522;2023-06-14T07:29:02;24.50;90.10
22321;DHT22;11328;53.928;18.522;2023-06-14T07:31:29;24.50;90.30
22321;DHT22;11328;53.928;18.522;2023-06-14T07:33:57;24.50;90.30
22321;DHT22;11328;53.928;18.522;2023-06-14T07:36:24;24.60;90.20
22321;DHT22;11328;53.928;18.522;2023-06-14T07:38:52;24.60;90.20
22321;DHT22;11328;53.928;18.522;2023-06-14T07:41:19;24.60;90.30
22321;DHT22;11328;53.928;18.522;2023-06-14T07:43:46;24.20;90.50
22321;DHT22;11328;53.928;18.522;2023-06-14T07:46:14;24.10;90.10
22321;DHT22;11328;53.928;18.522;2023-06-14T07:48:41;24.00;90.40
22321;DHT22;11328;53.928;18.522;2023-06-14T07:51:08;24.00;90.60
22321;DHT22;11328;53.928;18.522;2023-06-14T07:53:35;24.00;90.20
22321;DHT22;11328;53.928;18.522;2023-06-14T07:56:03;24.00;89.40
22321;DHT22;11328;53.928;18.522;2023-06-14T07:58:30;24.30;89.90
22321;DHT22;11328;53.928;18.522;2023-06-14T08:00:57;24.60;88.70
22321;DHT22;11328;53.928;18.522;2023-06-14T08:03:24;25.00;86.10
22321;DHT22;11328;53.928;18.522;2023-06-14T08:05:51;25.30;85.80
22321;DHT22;11328;53.928;18.522;2023-06-14T08:08:19;25.50;83.50
22321;DHT22;11328;53.928;18.522;2023-06-14T08:10:45;25.50;84.10
22321;DHT22;11328;53.928;18.522;2023-06-14T08:13:12;25.50;82.90
22321;DHT22;11328;53.928;18.522;2023-06-14T08:15:39;25.60;81.80
22321;DHT22;11328;53.928;18.522;2023-06-14T08:18:06;25.60;81.30
22321;DHT22;11328;53.928;18.522;2023-06-14T08:20:33;25.50;81.40
22321;DHT22;11328;53.928;18.522;2023-06-14T08:23:04;25.50;80.40
22321;DHT22;11328;53.928;18.522;2023-06-14T08:25:31;25.40;79.40
22321;DHT22;11328;53.928;18.522;2023-06-14T08:27:58;25.20;79.90
22321;DHT22;11328;53.928;18.522;2023-06-14T08:30:26;25.50;80.60
22321;DHT22;11328;53.928;18.522;2023-06-14T08:32:53;25.80;79.20
22321;DHT22;11328;53.928;18.522;2023-06-14T08:35:40;25.90;79.00
22321;DHT22;11328;53.928;18.522;2023-06-14T08:38:06;26.30;80.40
22321;DHT22;11328;53.928;18.522;2023-06-14T08:40:37;26.50;78.80
22321;DHT22;11328;53.928;18.522;2023-06-14T08:43:05;26.70;78.00
22321;DHT22;11328;53.928;18.522;2023-06-14T08:45:32;26.90;77.00
22321;DHT22;11328;53.928;18.522;2023-06-14T08:47:59;27.00;75.90
22321;DHT22;11328;53.928;18.522;2023-06-14T08:50:27;26.90;75.50
22321;DHT22;11328;53.928;18.522;2023-06-14T08:52:59;27.00;76.30
22321;DHT22;11328;53.928;18.522;2023-06-14T08:55:30;27.00;74.90
22321;DHT22;11328;53.928;18.522;2023-06-14T08:58:02;27.00;74.70
22321;DHT22;11328;53.928;18.522;2023-06-14T09:00:30;26.90;72.90
22321;DHT22;11328;53.928;18.522;2023-06-14T09:02:59;26.80;72.70
22321;DHT22;11328;53.928;18.522;2023-06-14T09:05:27;26.50;74.00
22321;DHT22;11328;53.928;18.522;2023-06-14T09:07:55;26.40;75.50
22321;DHT22;11328;53.928;18.522;2023-06-14T09:10:31;26.40;75.40
22321;DHT22;11328;53.928;18.522;2023-06-14T09:13:05;26.20;74.00
22321;DHT22;11328;53.928;18.522;2023-06-14T09:15:34;26.00;74.50
22321;DHT22;11328;53.928;18.522;2023-06-14T09:18:02;26.00;75.60
22321;DHT22;11328;53.928;18.522;2023-06-14T09:20:31;26.00;76.70
22321;DHT22;11328;53.928;18.522;2023-06-14T09:23:00;26.00;76.90
22321;DHT22;11328;53.928;18.522;2023-06-14T09:25:27;25.90;75.00
22321;DHT22;11328;53.928;18.522;2023-06-14T09:27:57;25.70;75.30
22321;DHT22;11328;53.928;18.522;2023-06-14T09:30:24;25.70;74.50
22321;DHT22;11328;53.928;18.522;2023-06-14T09:32:51;25.70;72.90
22321;DHT22;11328;53.928;18.522;2023-06-14T09:35:18;25.30;70.10
22321;DHT22;11328;53.928;18.522;2023-06-14T09:37:45;25.20;70.00
22321;DHT22;11328;53.928;18.522;2023-06-14T09:40:13;25.20;69.10
22321;DHT22;11328;53.928;18.522;2023-06-14T09:42:40;25.10;70.10
22321;DHT22;11328;53.928;18.522;2023-06-14T09:45:08;24.90;71.50
22321;DHT22;11328;53.928;18.522;2023-06-14T09:47:38;24.80;71.10
22321;DHT22;11328;53.928;18.522;2023-06-14T09:50:18;24.80;71.80
22321;DHT22;11328;53.928;18.522;2023-06-14T09:52:46;24.90;71.40
22321;DHT22;11328;53.928;18.522;2023-06-14T09:55:18;25.00;71.80
22321;DHT22;11328;53.928;18.522;2023-06-14T09:57:45;25.00;71.00
22321;DHT22;11328;53.928;18.522;2023-06-14T10:00:15;25.20;71.10
22321;DHT22;11328;53.928;18.522;2023-06-14T10:02:51;25.30;72.00
22321;DHT22;11328;53.928;18.522;2023-06-14T10:05:23;25.30;72.00
22321;DHT22;11328;53.928;18.522;2023-06-14T10:08:01;25.50;70.60
22321;DHT22;11328;53.928;18.522;2023-06-14T10:10:34;25.50;70.40
22321;DHT22;11328;53.928;18.522;2023-06-14T10:13:01;25.50;70.60
22321;DHT22;11328;53.928;18.522;2023-06-14T10:15:45;25.30;71.10
22321;DHT22;11328;53.928;18.522;2023-06-14T10:21:55;25.30;72.40
22321;DHT22;11328;53.928;18.522;2023-06-14T10:24:49;25.10;72.80
22321;DHT22;11328;53.928;18.522;2023-06-14T10:27:18;25.10;73.40
22321;DHT22;11328;53.928;18.522;2023-06-14T10:32:23;25.00;72.50
22321;DHT22;11328;53.928;18.522;2023-06-14T10:34:58;24.80;72.80
22321;DHT22;11328;53.928;18.522;2023-06-14T10:37:32;24.80;74.00
22321;DHT22;11328;53.928;18.522;2023-06-14T10:40:00;24.90;75.10
22321;DHT22;11328;53.928;18.522;2023-06-14T10:42:33;24.90;73.80
22321;DHT22;11328;53.928;18.522;2023-06-14T10:45:01;25.00;73.20
22321;DHT22;11328;53.928;18.522;2023-06-14T10:47:32;24.90;72.40
22321;DHT22;11328;53.928;18.522;2023-06-14T10:52:38;24.80;71.60
22321;DHT22;11328;53.928;18.522;2023-06-14T10:55:13;24.70;72.20
22321;DHT22;11328;53.928;18.522;2023-06-14T10:57:45;24.60;72.60
22321;DHT22;11328;53.928;18.522;2023-06-14T11:00:20;24.70;72.90
22321;DHT22;11328;53.928;18.522;2023-06-14T11:06:12;25.00;72.80
22321;DHT22;11328;53.928;18.522;2023-06-14T11:11:46;25.10;73.90
22321;DHT22;11328;53.928;18.522;2023-06-14T11:14:15;25.10;72.90
22321;DHT22;11328;53.928;18.522;2023-06-14T11:16:48;25.20;72.30
22321;DHT22;11328;53.928;18.522;2023-06-14T11:19:15;25.20;72.40
22321;DHT22;11328;53.928;18.522;2023-06-14T11:21:47;25.10;72.80
22321;DHT22;11328;53.928;18.522;2023-06-14T11:24:16;25.00;72.10
22321;DHT22;11328;53.928;18.522;2023-06-14T11:26:43;25.10;72.20
22321;DHT22;11328;53.928;18.522;2023-06-14T11:29:11;25.20;72.40
22321;DHT22;11328;53.928;18.522;2023-06-14T11:31:43;25.30;72.30
22321;DHT22;11328;53.928;18.522;2023-06-14T11:34:12;25.40;73.40
22321;DHT22;11328;53.928;18.522;2023-06-14T11:36:40;25.30;72.40
22321;DHT22;11328;53.928;18.522;2023-06-14T11:39:09;25.50;72.80
22321;DHT22;11328;53.928;18.522;2023-06-14T11:41:41;25.60;71.80
22321;DHT22;11328;53.928;18.522;2023-06-14T11:44:12;25.50;71.20
22321;DHT22;11328;53.928;18.522;2023-06-14T11:46:39;25.50;72.60
22321;DHT22;11328;53.928;18.522;2023-06-14T11:49:07;25.60;73.30
22321;DHT22;11328;53.928;18.522;2023-06-14T11:51:36;25.80;71.30
22321;DHT22;11328;53.928;18.522;2023-06-14T11:54:05;25.90;72.10
22321;DHT22;11328;53.928;18.522;2023-06-14T11:56:33;25.90;69.90
22321;DHT22;11328;53.928;18.522;2023-06-14T11:59:02;26.00;70.70
22321;DHT22;11328;53.928;18.522;2023-06-14T12:01:30;26.00;71.10
22321;DHT22;11328;53.928;18.522;2023-06-14T12:03:59;26.20;70.30
22321;DHT22;11328;53.928;18.522;2023-06-14T12:06:31;26.30;70.10
22321;DHT22;11328;53.928;18.522;2023-06-14T12:09:04;26.20;67.00
22321;DHT22;11328;53.928;18.522;2023-06-14T12:11:35;26.10;67.50
22321;DHT22;11328;53.928;18.522;2023-06-14T12:14:04;25.90;67.10
22321;DHT22;11328;53.928;18.522;2023-06-14T12:16:37;25.70;68.60
22321;DHT22;11328;53.928;18.522;2023-06-14T12:19:14;25.70;69.60
22321;DHT22;11328;53.928;18.522;2023-06-14T12:21:42;25.80;67.70
22321;DHT22;11328;53.928;18.522;2023-06-14T12:24:14;25.90;67.40
22321;DHT22;11328;53.928;18.522;2023-06-14T12:26:41;25.90;65.80
22321;DHT22;11328;53.928;18.522;2023-06-14T12:29:09;25.90;66.60
22321;DHT22;11328;53.928;18.522;2023-06-14T12:31:37;26.00;67.70
22321;DHT22;11328;53.928;18.522;2023-06-14T12:34:04;26.00;66.70
22321;DHT22;11328;53.928;18.522;2023-06-14T12:36:31;26.10;68.40
22321;DHT22;11328;53.928;18.522;2023-06-14T12:38:58;26.00;66.90
22321;DHT22;11328;53.928;18.522;2023-06-14T12:41:26;26.00;67.20
22321;DHT22;11328;53.928;18.522;2023-06-14T12:43:54;26.00;68.70
22321;DHT22;11328;53.928;18.522;2023-06-14T12:46:21;26.10;68.90
22321;DHT22;11328;53.928;18.522;2023-06-14T12:48:48;26.10;67.30
22321;DHT22;11328;53.928;18.522;2023-06-14T12:51:15;26.20;67.20
22321;DHT22;11328;53.928;18.522;2023-06-14T12:53:42;26.40;66.10
22321;DHT22;11328;53.928;18.522;2023-06-14T12:56:10;26.50;66.80
22321;DHT22;11328;53.928;18.522;2023-06-14T12:58:37;26.40;66.60
22321;DHT22;11328;53.928;18.522;2023-06-14T13:01:04;26.50;66.10
22321;DHT22;11328;53.928;18.522;2023-06-14T13:03:31;26.60;67.70
22321;DHT22;11328;53.928;18.522;2023-06-14T13:06:01;26.50;67.90
22321;DHT22;11328;53.928;18.522;2023-06-14T13:08:29;26.50;69.10
22321;DHT22;11328;53.928;18.522;2023-06-14T13:10:57;26.50;68.40
22321;DHT22;11328;53.928;18.522;2023-06-14T13:13:24;26.70;68.90
22321;DHT22;11328;53.928;18.522;2023-06-14T13:15:51;26.50;68.10
22321;DHT22;11328;53.928;18.522;2023-06-14T13:18:18;26.20;67.70
22321;DHT22;11328;53.928;18.522;2023-06-14T13:20:46;26.10;67.50
22321;DHT22;11328;53.928;18.522;2023-06-14T13:23:14;26.00;68.40
22321;DHT22;11328;53.928;18.522;2023-06-14T13:25:45;25.90;68.00
22321;DHT22;11328;53.928;18.522;2023-06-14T13:28:12;26.00;68.40
22321;DHT22;11328;53.928;18.522;2023-06-14T13:30:39;26.00;68.40
22321;DHT22;11328;53.928;18.522;2023-06-14T13:33:06;26.00;68.00
22321;DHT22;11328;53.928;18.522;2023-06-14T13:35:33;26.00;67.70
22321;DHT22;11328;53.928;18.522;2023-06-14T13:38:01;26.00;68.10
22321;DHT22;11328;53.928;18.522;2023-06-14T13:40:28;25.90;67.30
22321;DHT22;11328;53.928;18.522;2023-06-14T13:42:55;25.90;67.90
22321;DHT22;11328;53.928;18.522;2023-06-14T13:45:22;26.00;68.00
22321;DHT22;11328;53.928;18.522;2023-06-14T13:47:49;26.00;67.00
22321;DHT22;11328;53.928;18.522;2023-06-14T13:50:16;26.00;67.40
22321;DHT22;11328;53.928;18.522;2023-06-14T13:52:44;26.00;67.30
22321;DHT22;11328;53.928;18.522;2023-06-14T13:55:11;26.00;67.00
22321;DHT22;11328;53.928;18.522;2023-06-14T13:57:37;25.90;68.00
22321;DHT22;11328;53.928;18.522;2023-06-14T14:00:05;26.00;68.50
22321;DHT22;11328;53.928;18.522;2023-06-14T14:02:32;26.00;68.70
22321;DHT22;11328;53.928;18.522;2023-06-14T14:04:59;26.00;68.20
22321;DHT22;11328;53.928;18.522;2023-06-14T14:07:29;25.90;67.60
22321;DHT22;11328;53.928;18.522;2023-06-14T14:09:56;25.80;65.80
22321;DHT22;11328;53.928;18.522;2023-06-14T14:12:24;25.60;65.80
22321;DHT22;11328;53.928;18.522;2023-06-14T14:14:52;25.60;66.20
22321;DHT22;11328;53.928;18.522;2023-06-14T14:17:19;25.50;65.00
22321;DHT22;11328;53.928;18.522;2023-06-14T14:19:46;25.50;66.40
22321;DHT22;11328;53.928;18.522;2023-06-14T14:22:13;25.50;66.30
22321;DHT22;11328;53.928;18.522;2023-06-14T14:24:40;25.50;66.50
22321;DHT22;11328;53.928;18.522;2023-06-14T14:27:07;25.70;67.60
22321;DHT22;11328;53.928;18.522;2023-06-14T14:29:34;25.80;66.60
22321;DHT22;11328;53.928;18.522;2023-06-14T14:32:02;25.90;66.40
22321;DHT22;11328;53.928;18.522;2023-06-14T14:34:29;25.90;66.00
22321;DHT22;11328;53.928;18.522;2023-06-14T14:36:56;25.90;66.40
22321;DHT22;11328;53.928;18.522;2023-06-14T14:39:23;25.90;65.70
22321;DHT22;11328;53.928;18.522;2023-06-14T14:41:50;25.90;66.20
22321;DHT22;11328;53.928;18.522;2023-06-14T14:44:17;25.90;67.80
22321;DHT22;11328;53.928;18.522;2023-06-14T14:46:45;25.90;68.40
22321;DHT22;11328;53.928;18.522;2023-06-14T14:49:13;26.00;68.50
22321;DHT22;11328;53.928;18.522;2023-06-14T14:51:40;26.00;67.60
22321;DHT22;11328;53.928;18.522;2023-06-14T14:54:07;26.00;67.60
22321;DHT22;11328;53.928;18.522;2023-06-14T14:56:34;25.90;67.30
22321;DHT22;11328;53.928;18.522;2023-06-14T14:59:02;25.90;67.60
22321;DHT22;11328;53.928;18.522;2023-06-14T15:01:29;25.80;67.30
22321;DHT22;11328;53.928;18.522;2023-06-14T15:03:56;25.70;67.60
22321;DHT22;11328;53.928;18.522;2023-06-14T15:06:26;25.80;68.00
22321;DHT22;11328;53.928;18.522;2023-06-14T15:08:53;25.80;67.10
22321;DHT22;11328;53.928;18.522;2023-06-14T15:11:20;25.80;66.80
22321;DHT22;11328;53.928;18.522;2023-06-14T15:13:47;25.70;66.90
22321;DHT22;11328;53.928;18.522;2023-06-14T15:16:15;25.60;67.10
22321;DHT22;11328;53.928;18.522;2023-06-14T15:18:42;25.50;67.90
22321;DHT22;11328;53.928;18.522;2023-06-14T15:21:09;25.40;67.80
22321;DHT22;11328;53.928;18.522;2023-06-14T15:23:36;25.30;68.80
22321;DHT22;11328;53.928;18.522;2023-06-14T15:26:04;25.20;69.40
22321;DHT22;11328;53.928;18.522;2023-06-14T15:28:31;25.30;69.70
22321;DHT22;11328;53.928;18.522;2023-06-14T15:30:59;25.20;70.50
22321;DHT22;11328;53.928;18.522;2023-06-14T15:33:27;25.00;71.90
22321;DHT22;11328;53.928;18.522;2023-06-14T15:35:54;25.00;72.50
22321;DHT22;11328;53.928;18.522;2023-06-14T15:38:22;25.10;73.30
22321;DHT22;11328;53.928;18.522;2023-06-14T15:40:49;25.10;73.50
22321;DHT22;11328;53.928;18.522;2023-06-14T15:43:18;24.90;73.30